createdAt,value
2019-03-24T00:01:40.782Z,57.70
2019-03-24T00:04:03.897Z,59.57
2019-03-24T00:06:30.961Z,59.13
2019-03-24T00:08:58.010Z,57.30
2019-03-24T00:11:25.401Z,61.73
2019-03-24T00:13:54.625Z,53.77
2019-03-24T00:16:21.720Z,53.23
2019-03-24T00:18:48.769Z,52.53
2019-03-24T00:21:15.951Z,57.97
2019-03-24T00:23:43.030Z,56.80
2019-03-24T00:26:10.073Z,55.43
2019-03-24T00:28:37.107Z,61.77
2019-03-24T00:31:11.231Z,53.20
2019-03-24T00:33:38.303Z,57.93
2019-03-24T00:36:07.051Z,52.30
2019-03-24T00:38:34.136Z,54.20
2019-03-24T00:41:06.059Z,62.63
2019-03-24T00:43:33.364Z,57.00
2019-03-24T00:46:00.669Z,48.70
2019-03-24T00:48:27.809Z,61.27
2019-03-24T00:50:55.053Z,60.93
2019-03-24T00:53:22.256Z,59.47
2019-03-24T00:55:49.323Z,58.60
2019-03-24T00:58:17.411Z,54.50
2019-03-24T01:00:46.247Z,62.27
2019-03-24T01:03:13.681Z,63.90
2019-03-24T01:05:40.809Z,61.07
2019-03-24T01:08:07.932Z,61.73
2019-03-24T01:10:35.040Z,60.53
2019-03-24T01:13:02.139Z,60.03
2019-03-24T01:15:29.187Z,61.40
2019-03-24T01:17:57.426Z,58.67
2019-03-24T01:20:24.612Z,62.53
2019-03-24T01:22:51.626Z,63.03
2019-03-24T01:25:18.871Z,64.33
2019-03-24T01:27:46.025Z,59.90
2019-03-24T01:30:13.593Z,62.57
2019-03-24T01:32:40.703Z,62.33
2019-03-24T01:35:08.156Z,63.03
2019-03-24T01:37:35.471Z,61.93
2019-03-24T01:40:02.780Z,61.03
2019-03-24T01:42:36.272Z,66.90
2019-03-24T01:45:03.935Z,68.30
2019-03-24T01:47:31.030Z,63.40
2019-03-24T01:49:58.074Z,65.37
2019-03-24T01:52:26.690Z,65.37
2019-03-24T01:54:55.826Z,68.23
2019-03-24T01:57:22.863Z,63.90
2019-03-24T01:59:52.803Z,68.20
2019-03-24T02:02:22.012Z,72.07
2019-03-24T02:04:52.026Z,72.27
2019-03-24T02:07:21.328Z,76.50
2019-03-24T02:09:51.511Z,76.00
2019-03-24T02:15:08.570Z,73.60
2019-03-24T02:17:35.701Z,69.03
2019-03-24T02:20:10.729Z,76.17
2019-03-24T02:22:38.340Z,73.20
2019-03-24T02:25:06.209Z,82.67
2019-03-24T02:27:33.333Z,74.70
2019-03-24T02:30:04.375Z,79.50
2019-03-24T02:32:31.411Z,79.30
2019-03-24T02:34:58.415Z,79.23
2019-03-24T02:37:25.477Z,76.03
2019-03-24T02:39:52.478Z,71.37
2019-03-24T02:42:22.036Z,82.97
2019-03-24T02:44:49.130Z,81.03
2019-03-24T02:47:16.540Z,79.20
2019-03-24T02:49:43.895Z,80.40
2019-03-24T02:52:10.973Z,86.07
2019-03-24T02:54:38.059Z,83.53
2019-03-24T02:57:08.166Z,85.67
2019-03-24T02:59:35.170Z,84.50
2019-03-24T03:02:03.038Z,85.07
2019-03-24T03:04:30.487Z,85.83
2019-03-24T03:06:57.527Z,83.00
2019-03-24T03:09:24.748Z,82.60
2019-03-24T03:11:52.728Z,81.60
2019-03-24T03:14:20.541Z,82.97
2019-03-24T03:16:47.586Z,77.23
2019-03-24T03:19:17.616Z,79.03
2019-03-24T03:21:44.696Z,77.50
2019-03-24T03:24:11.885Z,81.83
2019-03-24T03:26:39.059Z,81.13
2019-03-24T03:29:06.343Z,82.07
2019-03-24T03:31:33.462Z,80.57
2019-03-24T03:34:00.879Z,76.40
2019-03-24T03:36:28.370Z,72.53
2019-03-24T03:38:57.538Z,71.10
2019-03-24T03:41:27.640Z,64.13
2019-03-24T03:43:57.125Z,60.67
2019-03-24T03:46:24.184Z,57.70
2019-03-24T03:48:59.066Z,58.07
2019-03-24T03:51:26.113Z,50.30
2019-03-24T03:53:53.166Z,51.60
2019-03-24T03:56:47.230Z,43.77
2019-03-24T03:59:14.337Z,33.47
2019-03-24T04:01:45.868Z,35.03
2019-03-24T04:04:12.904Z,29.77
2019-03-24T04:06:40.059Z,33.20
2019-03-24T04:09:09.822Z,28.93
2019-03-24T04:11:36.927Z,30.33
2019-03-24T04:14:04.058Z,33.10
2019-03-24T04:16:31.264Z,33.57
2019-03-24T04:18:58.356Z,26.30
2019-03-24T04:21:25.888Z,28.30
2019-03-24T04:23:53.067Z,23.53
2019-03-24T04:26:22.904Z,23.40
2019-03-24T04:28:51.238Z,26.50
2019-03-24T04:31:18.370Z,28.70
2019-03-24T04:33:45.471Z,26.33
2019-03-24T04:36:14.676Z,26.73
2019-03-24T04:38:42.042Z,29.70
2019-03-24T04:41:11.898Z,28.83
2019-03-24T04:43:41.051Z,22.33
2019-03-24T04:46:08.095Z,28.47
2019-03-24T04:48:35.114Z,33.83
2019-03-24T04:51:02.541Z,28.47
2019-03-24T04:53:29.549Z,29.33
2019-03-24T04:55:56.631Z,31.43
2019-03-24T04:58:23.791Z,27.50
2019-03-24T05:00:53.029Z,25.70
2019-03-24T05:03:20.092Z,33.27
2019-03-24T05:05:50.184Z,22.00
2019-03-24T05:08:17.219Z,24.93
2019-03-24T05:10:44.401Z,25.57
2019-03-24T05:13:11.584Z,24.77
2019-03-24T05:15:38.866Z,27.70
2019-03-24T05:18:06.356Z,30.67
2019-03-24T05:20:36.187Z,28.13
2019-03-24T05:23:03.597Z,23.40
2019-03-24T05:25:34.492Z,28.47
2019-03-24T05:28:08.552Z,28.70
2019-03-24T05:30:35.693Z,30.67
2019-03-24T05:33:02.745Z,28.13
2019-03-24T05:35:32.433Z,36.77
2019-03-24T05:37:59.505Z,28.77
2019-03-24T05:40:26.512Z,32.33
2019-03-24T05:42:54.163Z,35.50
2019-03-24T05:45:25.440Z,27.97
2019-03-24T05:47:59.815Z,30.83
2019-03-24T05:50:26.896Z,30.27
2019-03-24T05:52:54.059Z,32.90
2019-03-24T05:55:21.303Z,34.77
2019-03-24T05:57:48.644Z,30.70
2019-03-24T06:00:16.134Z,33.63
2019-03-24T06:02:44.495Z,34.57
2019-03-24T06:05:11.833Z,34.67
2019-03-24T06:07:38.961Z,33.40
2019-03-24T06:10:06.790Z,34.57
2019-03-24T06:12:34.217Z,35.87
2019-03-24T06:15:01.358Z,30.10
2019-03-24T06:17:28.405Z,28.80
2019-03-24T06:19:55.520Z,28.17
2019-03-24T06:22:23.189Z,29.13
2019-03-24T06:24:50.801Z,34.43
2019-03-24T06:27:17.943Z,33.47
2019-03-24T06:29:47.011Z,28.40
2019-03-24T06:32:14.104Z,34.60
2019-03-24T06:34:41.246Z,32.57
2019-03-24T06:37:08.393Z,38.07
2019-03-24T06:39:35.909Z,31.27
2019-03-24T06:42:03.071Z,32.97
2019-03-24T06:44:30.184Z,26.93
2019-03-24T06:46:57.312Z,31.93
2019-03-24T06:49:24.650Z,39.70
2019-03-24T06:51:53.175Z,39.63
2019-03-24T06:54:20.271Z,36.77
2019-03-24T06:56:49.225Z,34.00
2019-03-24T06:59:16.790Z,40.30
2019-03-24T07:01:44.038Z,38.57
2019-03-24T07:04:11.131Z,46.60
2019-03-24T07:06:40.345Z,51.80
2019-03-24T07:09:07.556Z,45.37
2019-03-24T07:11:35.086Z,51.03
2019-03-24T07:14:02.384Z,49.37
2019-03-24T07:16:29.806Z,57.03
2019-03-24T07:18:56.894Z,58.50
2019-03-24T07:21:24.321Z,49.73
2019-03-24T07:23:51.508Z,48.93
2019-03-24T07:26:19.325Z,51.43
2019-03-24T07:28:46.403Z,53.73
2019-03-24T07:31:13.616Z,53.33
2019-03-24T07:33:40.991Z,56.63
2019-03-24T07:36:08.098Z,60.37
2019-03-24T07:38:35.143Z,79.03
2019-03-24T07:41:03.487Z,65.57
2019-03-24T07:43:31.284Z,59.07
2019-03-24T07:45:58.613Z,61.37
2019-03-24T07:48:26.023Z,63.30
2019-03-24T07:50:53.201Z,61.13
2019-03-24T07:53:20.293Z,62.13
2019-03-24T07:55:48.212Z,62.57
2019-03-24T07:58:15.399Z,53.50
2019-03-24T08:00:43.361Z,60.33
2019-03-24T08:03:10.594Z,54.00
2019-03-24T08:05:37.744Z,61.77
2019-03-24T08:08:10.796Z,65.07
2019-03-24T08:10:38.248Z,62.53
2019-03-24T08:13:05.646Z,62.50
2019-03-24T08:15:32.959Z,60.70
2019-03-24T08:18:00.056Z,60.70
2019-03-24T08:20:27.277Z,63.07
2019-03-24T08:22:54.460Z,60.20
2019-03-24T08:25:21.936Z,66.57
2019-03-24T08:27:49.211Z,64.23
2019-03-24T08:30:30.066Z,68.83
2019-03-24T08:32:57.210Z,62.93
2019-03-24T08:35:24.784Z,61.07
2019-03-24T08:37:54.447Z,65.20
2019-03-24T08:40:22.498Z,69.37
2019-03-24T08:42:49.995Z,60.00
2019-03-24T08:45:25.686Z,63.60
2019-03-24T08:47:59.871Z,66.80
2019-03-24T08:50:30.981Z,68.83
2019-03-24T08:52:58.168Z,71.07
2019-03-24T08:55:25.316Z,59.57
2019-03-24T08:57:53.110Z,70.37
2019-03-24T09:00:30.108Z,61.37
2019-03-24T09:02:49.347Z,76.07
2019-03-24T09:05:18.531Z,78.27
2019-03-24T09:07:47.092Z,68.67
2019-03-24T09:10:21.325Z,67.07
2019-03-24T09:12:48.469Z,69.40
2019-03-24T09:15:16.039Z,64.17
2019-03-24T09:17:43.239Z,74.97
2019-03-24T09:20:10.751Z,62.67
2019-03-24T09:22:40.932Z,65.50
2019-03-24T09:25:11.487Z,66.17
2019-03-24T09:27:38.732Z,65.47
2019-03-24T09:30:11.895Z,74.00
2019-03-24T09:32:39.703Z,78.40
2019-03-24T09:35:07.113Z,68.27
2019-03-24T09:37:39.145Z,68.23
2019-03-24T09:40:08.723Z,66.80
2019-03-24T09:42:45.184Z,64.77
2019-03-24T09:45:15.770Z,63.43
2019-03-24T09:47:45.505Z,75.60
2019-03-24T09:50:15.346Z,66.23
2019-03-24T09:52:42.513Z,75.70
2019-03-24T09:55:09.901Z,69.90
2019-03-24T09:57:39.602Z,72.53
2019-03-24T10:00:08.375Z,71.43
2019-03-24T10:02:36.525Z,69.27
2019-03-24T10:05:04.429Z,77.83
2019-03-24T10:07:36.853Z,67.03
2019-03-24T10:10:07.067Z,65.73
2019-03-24T10:12:36.014Z,68.90
2019-03-24T10:15:04.284Z,66.57
2019-03-24T10:17:33.126Z,60.37
2019-03-24T10:20:00.451Z,76.40
2019-03-24T10:22:28.202Z,67.83
2019-03-24T10:24:55.505Z,61.93
2019-03-24T10:27:25.316Z,68.63
2019-03-24T10:29:53.140Z,66.57
2019-03-24T10:32:21.086Z,61.27
2019-03-24T10:34:49.663Z,77.23
2019-03-24T10:37:18.194Z,80.40
2019-03-24T10:39:46.770Z,66.37
2019-03-24T10:42:14.417Z,64.50
2019-03-24T10:44:43.854Z,62.13
2019-03-24T10:47:11.551Z,63.57
2019-03-24T10:49:38.755Z,63.50
2019-03-24T10:52:06.977Z,68.33
2019-03-24T10:54:34.316Z,67.70
2019-03-24T10:57:05.428Z,66.50
2019-03-24T10:59:37.562Z,56.03
2019-03-24T11:02:05.269Z,68.53
2019-03-24T11:04:34.082Z,55.73
2019-03-24T11:07:02.674Z,51.77
2019-03-24T11:09:29.784Z,52.63
2019-03-24T11:11:57.104Z,58.00
2019-03-24T11:14:24.280Z,64.20
2019-03-24T11:16:51.609Z,60.37
2019-03-24T11:19:19.143Z,68.53
2019-03-24T11:21:46.546Z,58.67
2019-03-24T11:24:15.983Z,54.50
2019-03-24T11:26:45.313Z,60.23
2019-03-24T11:29:12.947Z,57.70
2019-03-24T11:31:41.263Z,55.53
2019-03-24T11:34:09.398Z,56.00
2019-03-24T11:36:37.535Z,58.97
2019-03-24T11:39:06.699Z,65.43
2019-03-24T11:41:35.850Z,59.63
2019-03-24T11:44:03.667Z,51.07
2019-03-24T11:46:33.288Z,51.97
2019-03-24T11:49:00.954Z,57.30
2019-03-24T11:51:28.229Z,56.10
2019-03-24T11:53:58.284Z,58.80
2019-03-24T11:56:25.505Z,53.53
2019-03-24T11:58:53.009Z,51.83
2019-03-24T12:01:21.335Z,58.43
2019-03-24T12:03:50.299Z,49.70
2019-03-24T12:06:17.586Z,52.23
2019-03-24T12:08:46.762Z,45.77
2019-03-24T12:11:13.905Z,51.63
2019-03-24T12:13:41.290Z,45.87
2019-03-24T12:16:08.862Z,46.30
2019-03-24T12:18:38.219Z,49.40
2019-03-24T12:21:06.113Z,57.37
2019-03-24T12:23:33.530Z,64.93
2019-03-24T12:26:00.586Z,55.40
2019-03-24T12:28:30.269Z,60.13
2019-03-24T12:30:57.780Z,59.83
2019-03-24T12:33:25.876Z,61.67
2019-03-24T12:35:53.186Z,50.53
2019-03-24T12:38:21.064Z,64.63
2019-03-24T12:40:48.886Z,56.23
2019-03-24T12:43:19.596Z,51.43
2019-03-24T12:45:45.410Z,56.10
2019-03-24T12:48:13.310Z,50.77
2019-03-24T12:50:40.683Z,51.70
2019-03-24T12:53:08.297Z,55.57
2019-03-24T12:55:35.993Z,47.43
2019-03-24T12:58:03.359Z,54.73
2019-03-24T13:00:40.127Z,48.70
2019-03-24T13:03:07.572Z,48.97
2019-03-24T13:05:34.891Z,48.97
2019-03-24T13:08:15.956Z,56.20
2019-03-24T13:10:44.305Z,48.80
2019-03-24T13:13:11.744Z,50.40
2019-03-24T13:15:39.177Z,55.70
2019-03-24T13:18:07.136Z,51.63
2019-03-24T13:20:38.398Z,51.07
2019-03-24T13:23:04.100Z,55.37
2019-03-24T13:25:31.404Z,56.33
2019-03-24T13:27:58.624Z,46.53
2019-03-24T13:30:25.765Z,33.17
2019-03-24T13:32:53.109Z,38.77
2019-03-24T13:35:22.654Z,38.77
2019-03-24T13:37:50.472Z,36.37
2019-03-24T13:40:19.879Z,30.13
2019-03-24T13:42:47.549Z,34.80
2019-03-24T13:45:14.820Z,46.20
2019-03-24T13:47:44.796Z,42.47
2019-03-24T13:50:12.314Z,40.43
2019-03-24T13:52:40.066Z,41.40
2019-03-24T13:55:07.939Z,31.17
2019-03-24T13:57:35.452Z,35.83
2019-03-24T14:00:04.689Z,34.13
2019-03-24T14:02:32.364Z,38.23
2019-03-24T14:04:59.879Z,41.07
2019-03-24T14:07:28.657Z,44.20
2019-03-24T14:09:56.754Z,38.40
2019-03-24T14:12:24.082Z,32.40
2019-03-24T14:14:54.676Z,37.27
2019-03-24T14:17:22.887Z,40.90
2019-03-24T14:19:50.430Z,37.47
2019-03-24T14:22:18.196Z,39.60
2019-03-24T14:24:45.926Z,38.87
2019-03-24T14:27:13.741Z,37.27
2019-03-24T14:29:41.447Z,39.53
2019-03-24T14:32:08.889Z,38.50
2019-03-24T14:34:38.612Z,39.37
2019-03-24T14:37:06.592Z,41.63
2019-03-24T14:39:34.248Z,33.03
2019-03-24T14:42:02.099Z,41.83
2019-03-24T14:44:29.211Z,36.93
2019-03-24T14:46:57.178Z,41.20
2019-03-24T14:49:27.654Z,35.57
2019-03-24T14:51:54.841Z,33.50
2019-03-24T14:54:23.148Z,37.80
2019-03-24T14:56:50.630Z,43.73
2019-03-24T14:59:18.192Z,40.50
2019-03-24T15:01:47.705Z,43.60
2019-03-24T15:04:15.113Z,42.33
2019-03-24T15:06:45.937Z,43.03
2019-03-24T15:09:13.280Z,42.33
2019-03-24T15:11:40.792Z,40.87
2019-03-24T15:14:11.990Z,40.77
2019-03-24T15:16:39.111Z,42.13
2019-03-24T15:19:06.709Z,44.07
2019-03-24T15:21:35.005Z,39.07
2019-03-24T15:24:02.156Z,36.50
2019-03-24T15:26:30.447Z,39.03
2019-03-24T15:29:02.176Z,39.53
2019-03-24T15:31:29.280Z,38.53
2019-03-24T15:33:58.046Z,37.53
2019-03-24T15:36:25.277Z,39.77
2019-03-24T15:38:52.390Z,36.77
2019-03-24T15:41:19.959Z,34.97
2019-03-24T15:43:47.132Z,37.53
2019-03-24T15:46:14.445Z,38.17
2019-03-24T15:48:41.925Z,39.93
2019-03-24T15:51:16.711Z,43.23
2019-03-24T15:53:42.326Z,43.73
2019-03-24T15:56:09.442Z,38.97
2019-03-24T15:58:40.182Z,41.90
2019-03-24T16:01:07.628Z,42.00
2019-03-24T16:03:35.104Z,42.17
2019-03-24T16:06:03.445Z,35.47
2019-03-24T16:08:30.909Z,35.87
2019-03-24T16:10:58.093Z,42.10
2019-03-24T16:13:25.668Z,39.57
2019-03-24T16:15:53.997Z,39.10
2019-03-24T16:18:21.343Z,38.60
2019-03-24T16:20:48.447Z,40.90
2019-03-24T16:23:17.859Z,40.53
2019-03-24T16:25:50.519Z,43.67
2019-03-24T16:28:17.687Z,44.57
2019-03-24T16:30:45.506Z,48.50
2019-03-24T16:33:13.010Z,45.53
2019-03-24T16:35:40.146Z,49.03
2019-03-24T16:38:07.941Z,49.40
2019-03-24T16:40:35.738Z,50.17
2019-03-24T16:43:05.775Z,44.33
2019-03-24T16:45:33.486Z,47.70
2019-03-24T16:48:01.883Z,52.57
2019-03-24T16:50:29.643Z,49.80
2019-03-24T16:52:58.407Z,42.27
2019-03-24T16:55:26.997Z,46.33
2019-03-24T16:57:55.856Z,45.83
2019-03-24T17:00:26.325Z,45.37
2019-03-24T17:02:55.032Z,45.23
2019-03-24T17:05:24.678Z,46.23
2019-03-24T17:07:54.227Z,47.13
2019-03-24T17:10:22.139Z,46.00
2019-03-24T17:12:52.305Z,49.90
2019-03-24T17:15:22.349Z,47.40
2019-03-24T17:17:49.830Z,46.30
2019-03-24T17:20:17.783Z,46.50
2019-03-24T17:22:45.654Z,42.43
2019-03-24T17:25:17.578Z,47.90
2019-03-24T17:27:53.248Z,45.33
2019-03-24T17:30:20.523Z,50.63
2019-03-24T17:32:59.489Z,52.00
2019-03-24T17:35:28.592Z,53.23
2019-03-24T17:37:58.408Z,55.87
2019-03-24T17:40:26.217Z,54.57
2019-03-24T17:42:54.346Z,47.27
2019-03-24T17:45:22.232Z,48.30
2019-03-24T17:48:05.095Z,57.57
2019-03-24T17:50:41.406Z,51.77
2019-03-24T17:53:10.857Z,57.93
2019-03-24T17:55:38.322Z,62.70
2019-03-24T17:58:10.466Z,58.13
2019-03-24T18:00:43.733Z,60.80
2019-03-24T18:03:11.492Z,57.30
2019-03-24T18:05:43.769Z,63.57
2019-03-24T18:08:12.145Z,49.77
2019-03-24T18:10:39.582Z,51.43
2019-03-24T18:13:07.090Z,55.97
2019-03-24T18:15:36.524Z,50.73
2019-03-24T18:18:14.215Z,49.20
2019-03-24T18:20:46.704Z,51.93
2019-03-24T18:23:22.424Z,59.50
2019-03-24T18:25:55.463Z,53.53
2019-03-24T18:28:24.684Z,55.17
2019-03-24T18:30:53.403Z,55.43
2019-03-24T18:33:21.670Z,62.07
2019-03-24T18:35:54.254Z,54.13
2019-03-24T18:38:29.465Z,50.70
2019-03-24T18:41:25.896Z,52.17
2019-03-24T18:43:54.983Z,51.60
2019-03-24T18:46:26.525Z,58.63
2019-03-24T18:48:58.549Z,56.33
2019-03-24T18:51:32.690Z,51.67
2019-03-24T18:54:02.934Z,49.07
2019-03-24T18:56:30.646Z,60.43
2019-03-24T18:58:58.396Z,55.07
2019-03-24T19:01:26.133Z,52.43
2019-03-24T19:03:58.520Z,47.47
2019-03-24T19:06:28.773Z,48.37
2019-03-24T19:09:08.029Z,49.80
2019-03-24T19:11:39.565Z,50.93
2019-03-24T19:14:09.825Z,54.50
2019-03-24T19:16:38.027Z,48.07
2019-03-24T19:19:05.623Z,58.20
2019-03-24T19:21:32.925Z,52.80
2019-03-24T19:24:01.029Z,57.00
2019-03-24T19:26:28.312Z,58.47
2019-03-24T19:28:57.406Z,53.20
2019-03-24T19:31:25.036Z,48.83
2019-03-24T19:33:53.022Z,46.87
2019-03-24T19:36:20.862Z,56.40
2019-03-24T19:39:09.264Z,53.73
2019-03-24T19:41:42.257Z,46.90
2019-03-24T19:44:18.324Z,48.40
2019-03-24T19:46:50.823Z,51.30
2019-03-24T19:49:18.173Z,52.30
2019-03-24T19:51:48.358Z,43.73
2019-03-24T19:54:16.996Z,55.73
2019-03-24T19:56:47.402Z,55.40
2019-03-24T19:59:17.351Z,49.10
2019-03-24T20:01:47.400Z,50.10
2019-03-24T20:04:17.091Z,42.63
2019-03-24T20:06:47.097Z,48.87
2019-03-24T20:09:17.349Z,56.67
2019-03-24T20:11:52.065Z,41.00
2019-03-24T20:14:23.989Z,47.53
2019-03-24T20:17:01.404Z,47.20
2019-03-24T20:19:28.622Z,41.77
2019-03-24T20:21:55.976Z,47.93
2019-03-24T20:24:23.311Z,48.50
2019-03-24T20:26:56.407Z,47.37
2019-03-24T20:29:25.673Z,49.10
2019-03-24T20:31:55.703Z,53.00
2019-03-24T20:34:24.890Z,52.10
2019-03-24T20:36:54.586Z,59.80
2019-03-24T20:39:26.659Z,58.97
2019-03-24T20:41:56.222Z,53.70
2019-03-24T20:44:25.872Z,53.13
2019-03-24T20:46:53.036Z,60.03
2019-03-24T20:49:25.629Z,50.23
2019-03-24T20:52:01.813Z,53.10
2019-03-24T20:54:29.240Z,52.50
2019-03-24T20:56:57.815Z,54.27
2019-03-24T20:59:30.846Z,50.80
2019-03-24T21:02:04.702Z,58.47
2019-03-24T21:04:35.016Z,56.33
2019-03-24T21:07:02.894Z,51.00
2019-03-24T21:09:30.465Z,49.13
2019-03-24T21:11:59.633Z,52.37
2019-03-24T21:14:27.134Z,50.67
2019-03-24T21:16:56.879Z,48.03
2019-03-24T21:19:24.079Z,51.80
2019-03-24T21:21:57.392Z,52.77
2019-03-24T21:24:25.787Z,42.53
2019-03-24T21:26:52.922Z,53.33
2019-03-24T21:29:20.090Z,50.30
2019-03-24T21:31:47.284Z,53.43
2019-03-24T21:34:27.849Z,46.83
2019-03-24T21:36:54.930Z,48.97
2019-03-24T21:39:22.544Z,44.73
2019-03-24T21:41:50.801Z,47.23
2019-03-24T21:44:17.941Z,52.17
2019-03-24T21:46:46.138Z,47.27
2019-03-24T21:49:13.228Z,41.67
2019-03-24T21:51:40.466Z,47.73
2019-03-24T21:54:07.619Z,42.63
2019-03-24T21:56:34.738Z,41.77
2019-03-24T21:59:03.383Z,43.77
2019-03-24T22:01:30.436Z,38.33
2019-03-24T22:03:57.689Z,41.67
2019-03-24T22:06:27.320Z,39.23
2019-03-24T22:08:54.414Z,35.80
2019-03-24T22:11:21.500Z,32.53
2019-03-24T22:13:48.839Z,33.00
2019-03-24T22:16:15.949Z,27.67
2019-03-24T22:18:43.048Z,25.40
2019-03-24T22:21:11.430Z,24.97
2019-03-24T22:23:39.651Z,29.37
2019-03-24T22:26:06.699Z,29.23
2019-03-24T22:28:33.898Z,27.63
2019-03-24T22:31:00.977Z,23.43
2019-03-24T22:33:28.039Z,29.93
2019-03-24T22:35:55.405Z,24.47
2019-03-24T22:38:25.015Z,22.30
2019-03-24T22:40:52.012Z,24.07
2019-03-24T22:43:19.097Z,21.63
2019-03-24T22:45:46.174Z,22.20
2019-03-24T22:48:14.458Z,22.33
2019-03-24T22:50:41.553Z,16.83
2019-03-24T22:53:08.573Z,24.50
2019-03-24T22:55:35.795Z,22.33
2019-03-24T22:58:03.156Z,23.03
2019-03-24T23:00:50.044Z,25.80
2019-03-24T23:03:19.492Z,25.67
2019-03-24T23:05:46.681Z,22.33
2019-03-24T23:08:13.740Z,19.27
2019-03-24T23:10:47.415Z,24.73
2019-03-24T23:13:14.463Z,19.73
2019-03-24T23:15:41.671Z,22.57
2019-03-24T23:18:08.773Z,17.37
2019-03-24T23:20:36.083Z,16.33
2019-03-24T23:23:03.549Z,20.47
2019-03-24T23:25:30.613Z,18.20
2019-03-24T23:28:00.014Z,18.13
2019-03-24T23:30:27.126Z,20.63
2019-03-24T23:32:56.197Z,15.77
2019-03-24T23:35:26.820Z,18.27
2019-03-24T23:37:56.397Z,17.07
2019-03-24T23:40:26.039Z,20.17
2019-03-24T23:42:56.162Z,18.70
2019-03-24T23:45:32.545Z,18.17
2019-03-24T23:48:02.124Z,16.23
2019-03-24T23:50:29.470Z,12.73
2019-03-24T23:52:59.675Z,14.67
2019-03-24T23:55:26.910Z,16.67
2019-03-24T23:57:56.259Z,15.43
